Time;durP1;ratioP1;P1;durP2;ratioP2;P2;SDS_P1;SDS_P2;PMS_P1;PMS_P2;Temp;Humidity;BMP_temperature;BMP_pressure;BME280_temperature;BME280_humidity;BME280_pressure;Samples;Min_cycle;Max_cycle;Signal;HPM_P1;HPM_P2
2022/12/15 00:40:11;;;;;;;19.92;12.60;;;;;;;4.26;92.32;95741.19;5133798;28;20057;-62
2022/12/15 00:42:38;;;;;;;19.48;12.52;;;;;;;4.27;92.54;95719.56;5133407;28;20122;-63
2022/12/15 00:45:07;;;;;;;21.45;12.35;;;;;;;4.27;92.56;95716.97;5133618;28;20082;-63
2022/12/15 00:47:33;;;;;;;28.30;14.40;;;;;;;4.23;92.84;95717.94;5133634;28;20053;-63
2022/12/15 01:20:19;;;;;;;169.60;23.45;;;;;;;4.12;96.91;95703.56;5137205;27;20061;-65
2022/12/15 01:22:51;;;;;;;60.92;21.60;;;;;;;4.15;97.22;95687.06;5136923;27;20054;-66
2022/12/15 01:25:21;;;;;;;107.07;22.83;;;;;;;4.15;97.04;95694.84;5136923;27;20039;-63
2022/12/15 01:27:49;;;;;;;76.13;22.83;;;;;;;4.20;96.79;95700.78;5136817;27;20085;-65
2022/12/15 01:30:19;;;;;;;67.28;21.05;;;;;;;4.27;96.88;95710.06;5136769;27;20279;-66
2022/12/15 01:32:46;;;;;;;58.15;22.90;;;;;;;4.34;96.46;95715.09;5136786;27;20051;-62
2022/12/15 01:35:14;;;;;;;70.22;21.33;;;;;;;4.35;96.18;95720.22;5136742;27;20454;-63
2022/12/15 01:37:41;;;;;;;52.90;22.08;;;;;;;4.39;95.83;95720.97;5136486;27;20096;-65
2022/12/15 01:42:58;;;;;;;208.57;26.90;;;;;;;4.53;94.95;95723.22;5136404;27;20408;-63
2022/12/15 01:45:47;;;;;;;148.13;24.45;;;;;;;4.52;94.93;95719.75;5136487;27;20397;-65
2022/12/15 01:48:20;;;;;;;66.80;21.33;;;;;;;4.58;94.45;95720.50;5136409;27;20469;-63
2022/12/15 01:50:58;;;;;;;88.75;23.90;;;;;;;4.57;94.39;95703.28;5136358;27;20542;-63
2022/12/15 01:53:27;;;;;;;120.78;22.25;;;;;;;4.47;94.65;95682.78;5136328;27;20043;-63
2022/12/15 01:55:57;;;;;;;160.57;23.25;;;;;;;4.46;94.57;95667.28;5136235;27;20045;-63
2022/12/15 01:58:25;;;;;;;318.08;30.42;;;;;;;4.39;95.04;95666.59;5136101;27;20096;-66
2022/12/15 02:00:52;;;;;;;217.60;25.85;;;;;;;4.34;95.61;95695.22;5136197;27;20122;-64
2022/12/15 02:03:19;;;;;;;74.25;22.08;;;;;;;4.34;95.74;95690.06;5136125;27;20047;-63
2022/12/15 02:05:47;;;;;;;122.22;23.60;;;;;;;4.33;95.90;95682.31;5136123;27;20122;-65
2022/12/15 02:08:14;;;;;;;225.68;27.40;;;;;;;4.40;95.80;95673.50;5136036;27;20043;-63
2022/12/15 02:11:00;;;;;;;308.52;29.63;;;;;;;4.45;95.95;95678.56;5135306;27;20046;-64
2022/12/15 02:13:35;;;;;;;74.82;20.85;;;;;;;4.51;95.36;95683.53;5135908;27;20078;-63
2022/12/15 02:16:12;;;;;;;91.72;22.85;;;;;;;4.48;94.98;95688.84;5136055;27;20043;-62
2022/12/15 02:18:49;;;;;;;50.90;21.75;;;;;;;4.54;94.92;95689.50;5135885;27;20054;-64
2022/12/15 02:21:19;;;;;;;50.42;21.10;;;;;;;4.58;94.33;95692.00;5135800;27;20043;-62
2022/12/15 02:24:26;;;;;;;101.80;22.52;;;;;;;4.55;93.44;95695.53;5135876;27;20043;-65
2022/12/15 02:27:26;;;;;;;86.45;23.10;;;;;;;4.57;92.94;95688.56;5135735;27;20043;-65
2022/12/15 02:30:29;;;;;;;69.28;21.42;;;;;;;4.57;91.86;95703.28;5135601;27;20039;-65
2022/12/15 02:33:06;;;;;;;48.97;22.02;;;;;;;4.54;91.26;95697.28;5135489;27;20108;-65
2022/12/15 02:35:45;;;;;;;256.63;24.25;;;;;;;4.55;90.53;95698.97;5135490;27;20404;-66
2022/12/15 02:38:13;;;;;;;562.47;34.08;;;;;;;4.51;90.18;95699.94;5135464;27;20149;-66
2022/12/15 02:40:40;;;;;;;62.95;21.30;;;;;;;4.48;89.47;95723.34;5135529;27;20054;-66
2022/12/15 02:43:09;;;;;;;37.60;19.80;;;;;;;4.48;89.83;95723.34;5135105;27;20524;-63
2022/12/15 02:45:47;;;;;;;78.32;21.92;;;;;;;4.42;90.16;95711.41;5135314;27;20126;-64
2022/12/15 02:48:26;;;;;;;106.75;22.20;;;;;;;4.34;90.00;95705.59;5135335;27;20454;-64
2022/12/15 02:51:07;;;;;;;41.03;21.25;;;;;;;4.32;90.14;95694.41;5135216;27;20126;-66
2022/12/15 02:53:52;;;;;;;40.95;20.80;;;;;;;4.29;89.86;95708.31;5135161;27;20050;-65
2022/12/15 02:56:26;;;;;;;36.70;21.40;;;;;;;4.24;89.49;95720.50;5135023;27;20044;-64
2022/12/15 02:59:04;;;;;;;38.33;20.80;;;;;;;4.22;88.67;95724.88;5134992;27;20100;-66
2022/12/15 03:01:38;;;;;;;31.73;21.95;;;;;;;4.20;88.52;95721.47;5135007;27;20207;-66
2022/12/15 03:04:08;;;;;;;39.83;21.40;;;;;;;4.20;88.04;95718.88;5134963;27;20545;-65
2022/12/15 03:06:35;;;;;;;50.85;22.30;;;;;;;4.16;87.91;95719.88;5134957;27;20560;-62
2022/12/15 03:09:03;;;;;;;103.60;23.30;;;;;;;4.05;87.85;95717.53;5134863;27;20088;-64
2022/12/15 03:11:31;;;;;;;67.97;21.27;;;;;;;4.01;88.07;95724.53;5134892;27;20069;-65
2022/12/15 03:13:58;;;;;;;380.92;31.58;;;;;;;4.01;87.93;95723.69;5134728;27;20043;-61
2022/12/15 03:16:25;;;;;;;58.65;20.52;;;;;;;4.01;87.58;95728.88;5134630;27;20126;-64
2022/12/15 03:18:54;;;;;;;42.03;19.88;;;;;;;3.92;87.30;95730.78;5134607;27;20051;-64
2022/12/15 03:21:21;;;;;;;42.00;20.42;;;;;;;3.87;87.49;95730.06;5133824;27;20135;-63
2022/12/15 03:23:49;;;;;;;51.60;20.63;;;;;;;3.84;88.07;95724.09;5134523;27;20485;-63
2022/12/15 03:26:16;;;;;;;38.20;18.90;;;;;;;3.89;87.83;95717.06;5134677;27;20100;-63
2022/12/15 03:28:43;;;;;;;36.53;20.95;;;;;;;3.90;87.97;95717.03;5134483;27;20069;-66
2022/12/15 03:31:10;;;;;;;39.08;20.88;;;;;;;3.87;88.50;95721.44;5134407;27;20411;-66
2022/12/15 03:33:37;;;;;;;53.40;22.08;;;;;;;3.89;88.28;95704.13;5134430;27;20495;-63
2022/12/15 03:36:06;;;;;;;336.15;30.23;;;;;;;3.87;88.67;95686.06;5134386;27;20515;-66
2022/12/15 03:38:34;;;;;;;54.03;19.65;;;;;;;3.87;88.36;95691.25;5134178;27;20130;-66
2022/12/15 03:41:01;;;;;;;50.08;20.55;;;;;;;3.88;88.66;95673.94;5134287;27;20043;-67
2022/12/15 03:43:28;;;;;;;40.80;20.58;;;;;;;3.91;88.08;95655.75;5134133;27;20047;-64
2022/12/15 03:45:55;;;;;;;63.50;20.00;;;;;;;3.90;88.18;95660.13;5134266;27;20485;-65
2022/12/15 03:48:22;;;;;;;50.47;19.83;;;;;;;3.93;88.23;95641.06;5134276;27;20135;-63
2022/12/15 03:50:50;;;;;;;58.90;19.92;;;;;;;3.98;87.89;95643.53;5134287;27;20047;-64
2022/12/15 03:53:20;;;;;;;37.03;19.55;;;;;;;3.99;88.30;95642.63;5134251;27;20500;-63
2022/12/15 03:55:47;;;;;;;38.43;21.33;;;;;;;4.02;88.08;95629.63;5134190;27;20047;-65
2022/12/15 03:58:14;;;;;;;46.83;20.02;;;;;;;3.98;88.19;95646.97;5133992;27;20128;-65
2022/12/15 04:00:41;;;;;;;56.13;21.15;;;;;;;3.90;88.48;95643.72;5134152;27;20506;-65
2022/12/15 04:03:10;;;;;;;45.75;19.90;;;;;;;3.85;88.85;95658.53;5134050;28;20047;-66
2022/12/15 04:05:38;;;;;;;43.60;20.52;;;;;;;3.86;88.67;95652.47;5134017;28;20557;-65
2022/12/15 04:08:06;;;;;;;70.10;24.63;;;;;;;3.71;89.27;95654.56;5133963;28;20074;-65
2022/12/15 04:10:35;;;;;;;59.20;21.67;;;;;;;3.62;89.53;95670.28;5133919;28;20043;-65
2022/12/15 04:13:05;;;;;;;125.53;24.38;;;;;;;3.57;90.02;95666.97;5133946;28;20051;-65
2022/12/15 04:15:32;;;;;;;92.00;23.48;;;;;;;3.62;90.24;95659.94;5133938;28;20100;-62
2022/12/15 04:18:01;;;;;;;206.60;27.20;;;;;;;3.67;89.95;95665.84;5133963;28;20078;-63
2022/12/15 04:20:28;;;;;;;204.13;25.70;;;;;;;3.75;89.38;95663.06;5133825;28;20054;-61
2022/12/15 04:22:55;;;;;;;142.25;26.20;;;;;;;3.81;89.11;95680.19;5133748;28;20538;-61
2022/12/15 05:31:54;;;;;;;41.15;18.70;;;;;;;3.81;92.26;95706.06;5136844;27;20099;-63
2022/12/15 05:34:26;;;;;;;41.53;19.80;;;;;;;3.80;92.40;95700.03;5136642;27;20050;-62
2022/12/15 05:37:00;;;;;;;47.03;20.20;;;;;;;3.85;92.50;95703.34;5136615;27;20043;-65
2022/12/15 05:39:27;;;;;;;36.35;18.23;;;;;;;3.91;92.48;95708.38;5136504;27;20078;-65
2022/12/15 05:41:56;;;;;;;32.92;17.98;;;;;;;3.90;92.61;95716.19;5136294;27;20135;-61
2022/12/15 05:44:24;;;;;;;32.40;17.77;;;;;;;3.92;92.88;95728.19;5135630;27;20073;-61
2022/12/15 05:46:53;;;;;;;30.98;16.85;;;;;;;3.97;93.30;95724.66;5136453;27;20053;-63
2022/12/15 05:49:23;;;;;;;28.38;15.68;;;;;;;3.93;93.90;95718.69;5136562;27;20039;-65
2022/12/15 05:51:52;;;;;;;21.13;12.73;;;;;;;3.98;94.40;95718.59;5136423;27;20484;-64
2022/12/15 05:54:20;;;;;;;28.15;14.75;;;;;;;4.02;94.17;95705.53;5136441;27;20497;-66
2022/12/15 05:56:48;;;;;;;22.42;14.68;;;;;;;4.13;94.09;95709.59;5136404;27;20526;-64
2022/12/15 05:59:16;;;;;;;22.88;15.27;;;;;;;4.22;93.76;95708.50;5136195;27;20138;-62
2022/12/15 06:01:43;;;;;;;23.45;14.93;;;;;;;4.26;93.64;95702.34;5136185;27;20078;-63
2022/12/15 06:04:12;;;;;;;24.13;13.55;;;;;;;4.34;93.38;95707.31;5136247;27;20086;-66
2022/12/15 06:06:39;;;;;;;26.73;13.68;;;;;;;4.35;92.87;95707.28;5136053;27;20100;-64
2022/12/15 06:09:08;;;;;;;25.00;14.27;;;;;;;4.40;92.96;95725.28;5135983;27;20130;-66
2022/12/15 06:11:36;;;;;;;21.02;14.30;;;;;;;4.48;92.59;95735.47;5135976;27;20564;-64
2022/12/15 06:14:07;;;;;;;29.80;18.00;;;;;;;4.50;92.35;95741.44;5135984;27;20054;-63
2022/12/15 06:16:35;;;;;;;134.38;33.05;;;;;;;4.42;91.94;95742.47;5135888;27;20042;-64
2022/12/15 06:19:03;;;;;;;66.65;28.17;;;;;;;4.46;92.05;95743.25;5135854;27;20047;-62
2022/12/15 06:21:34;;;;;;;54.00;26.75;;;;;;;4.52;91.26;95750.03;5135804;27;20043;-64
2022/12/15 06:24:03;;;;;;;49.60;25.80;;;;;;;4.59;91.09;95746.38;5135930;27;20119;-65
2022/12/15 06:26:33;;;;;;;49.05;25.63;;;;;;;4.64;90.55;95746.25;5135802;27;20400;-63
2022/12/15 06:29:02;;;;;;;57.95;26.35;;;;;;;4.67;90.59;95743.56;5135716;27;20493;-64
2022/12/15 06:31:30;;;;;;;54.08;25.88;;;;;;;4.67;90.30;95751.34;5135578;27;20054;-63
2022/12/15 06:33:58;;;;;;;44.20;23.67;;;;;;;4.67;90.57;95757.34;5135474;27;20050;-64
2022/12/15 06:36:27;;;;;;;44.45;23.85;;;;;;;4.71;90.39;95757.28;5135522;27;20051;-66
2022/12/15 06:38:55;;;;;;;33.67;19.55;;;;;;;4.78;90.78;95741.53;5135365;27;20099;-64
2022/12/15 06:41:22;;;;;;;26.40;15.00;;;;;;;4.74;90.87;95745.09;5135097;27;20091;-65
2022/12/15 06:43:52;;;;;;;27.80;13.98;;;;;;;4.71;91.53;95762.47;5135405;27;20055;-64
2022/12/15 06:46:20;;;;;;;27.48;15.43;;;;;;;4.79;92.84;95773.47;5135388;27;20043;-63
2022/12/15 06:48:48;;;;;;;22.20;13.70;;;;;;;4.85;92.39;95781.06;5135224;27;20122;-64
2022/12/15 06:51:16;;;;;;;22.60;12.90;;;;;;;4.74;91.52;95773.59;5135243;27;20039;-63
2022/12/15 06:53:47;;;;;;;20.75;11.50;;;;;;;4.73;91.99;95784.84;5135180;27;20051;-66
2022/12/15 06:56:19;;;;;;;20.17;12.60;;;;;;;4.64;92.31;95785.09;5134937;27;20484;-66
2022/12/15 06:58:48;;;;;;;17.95;11.73;;;;;;;4.64;92.87;95792.88;5134958;27;20047;-65
2022/12/15 07:01:18;;;;;;;22.40;12.43;;;;;;;4.67;93.17;95797.97;5135124;27;20445;-63
2022/12/15 07:03:46;;;;;;;19.08;10.75;;;;;;;4.79;93.08;95802.00;5134956;27;20043;-65
2022/12/15 07:06:15;;;;;;;16.17;10.50;;;;;;;4.89;92.54;95802.59;5134897;27;20067;-65
2022/12/15 07:08:44;;;;;;;17.38;10.75;;;;;;;5.08;92.62;95815.88;5134770;27;20439;-66
2022/12/15 07:11:13;;;;;;;15.55;10.77;;;;;;;5.35;91.97;95828.09;5134797;27;20047;-65
2022/12/15 07:13:40;;;;;;;14.43;9.43;;;;;;;5.66;91.60;95829.84;5134948;27;20439;-63
2022/12/15 07:16:15;;;;;;;12.98;8.50;;;;;;;5.99;90.05;95823.66;5134790;27;20043;-66
2022/12/15 07:18:44;;;;;;;10.13;8.55;;;;;;;6.41;87.85;95835.34;5134405;27;20058;-61
2022/12/15 07:21:12;;;;;;;9.55;7.35;;;;;;;6.67;86.40;95833.63;5134679;27;20073;-64
2022/12/15 07:23:40;;;;;;;18.60;11.63;;;;;;;6.77;85.59;95829.81;5134636;27;20480;-63
2022/12/15 07:26:09;;;;;;;18.05;11.65;;;;;;;6.87;84.95;95835.56;5134615;27;20051;-66
2022/12/15 07:28:38;;;;;;;17.25;12.38;;;;;;;7.00;84.15;95841.16;5134518;27;20060;-67
2022/12/15 07:31:14;;;;;;;16.13;11.40;;;;;;;7.13;83.45;95843.34;5134495;27;20046;-64
2022/12/15 07:33:41;;;;;;;17.92;11.90;;;;;;;7.15;82.97;95855.38;5134461;27;20040;-64
2022/12/15 07:36:10;;;;;;;19.45;12.98;;;;;;;7.23;82.65;95857.72;5134516;27;20051;-66
2022/12/15 07:38:37;;;;;;;23.30;13.30;;;;;;;7.76;82.66;95858.41;5134340;27;20496;-65
2022/12/15 07:41:07;;;;;;;17.60;12.60;;;;;;;8.16;78.56;95869.03;5134243;27;20130;-63
2022/12/15 07:43:34;;;;;;;13.07;9.47;;;;;;;8.11;78.21;95850.16;5134019;27;20043;-64
2022/12/15 07:46:02;;;;;;;14.73;10.68;;;;;;;8.52;77.74;95846.78;5134211;27;20557;-63
2022/12/15 07:48:29;;;;;;;15.82;10.05;;;;;;;10.45;70.92;95845.31;5134227;27;20043;-62
2022/12/15 07:50:57;;;;;;;11.55;8.25;;;;;;;13.03;63.09;95857.97;5134230;27;20043;-66
2022/12/15 07:53:27;;;;;;;10.50;8.20;;;;;;;15.25;55.22;95852.09;5134217;27;20461;-63
2022/12/15 07:55:57;;;;;;;5.47;4.88;;;;;;;16.93;48.87;95853.53;5134091;27;20086;-64
2022/12/15 07:58:25;;;;;;;7.40;5.23;;;;;;;18.10;46.14;95840.31;5134185;27;20126;-64
2022/12/15 08:00:52;;;;;;;5.95;5.35;;;;;;;18.74;43.42;95848.50;5134147;28;20340;-63
2022/12/15 08:03:20;;;;;;;4.00;3.60;;;;;;;19.44;41.70;95848.03;5133940;27;20074;-62
2022/12/15 08:05:48;;;;;;;4.68;3.00;;;;;;;20.33;38.44;95857.25;5134012;28;20489;-66
2022/12/15 08:08:17;;;;;;;4.75;3.90;;;;;;;21.42;37.20;95851.97;5133541;27;20049;-66
2022/12/15 08:10:45;;;;;;;7.80;5.28;;;;;;;21.41;38.14;95860.09;5134039;28;20106;-66
2022/12/15 08:13:13;;;;;;;5.32;4.82;;;;;;;21.90;36.41;95875.13;5134020;28;20047;-64
2022/12/15 08:15:41;;;;;;;5.32;4.82;;;;;;;21.52;37.13;95859.13;5133904;28;20043;-64
2022/12/15 08:18:09;;;;;;;5.10;4.60;;;;;;;21.19;37.08;95867.44;5133879;28;20481;-66
2022/12/15 08:20:36;;;;;;;4.55;4.15;;;;;;;21.54;36.70;95865.97;5133825;28;20100;-66
2022/12/15 08:23:03;;;;;;;4.80;4.30;;;;;;;22.19;36.03;95874.16;5133785;28;20507;-64
2022/12/15 08:25:31;;;;;;;4.18;3.78;;;;;;;22.00;35.97;95877.75;5133790;28;20527;-65
2022/12/15 08:28:00;;;;;;;3.85;3.47;;;;;;;20.96;36.94;95881.81;5133875;28;20046;-65
2022/12/15 08:30:28;;;;;;;4.50;4.10;;;;;;;19.24;40.08;95897.47;5133722;28;20064;-65
2022/12/15 08:32:55;;;;;;;3.75;3.45;;;;;;;17.94;42.27;95884.72;5133825;28;20043;-64
2022/12/15 08:35:22;;;;;;;4.82;4.38;;;;;;;16.75;45.20;95871.56;5133720;28;20050;-64
2022/12/15 08:37:50;;;;;;;4.70;4.18;;;;;;;16.16;48.86;95866.09;5133686;28;20043;-64
2022/12/15 08:40:17;;;;;;;5.25;4.72;;;;;;;15.96;49.98;95869.28;5133668;28;20058;-66
2022/12/15 08:42:44;;;;;;;5.13;4.63;;;;;;;16.26;49.64;95862.78;5133497;28;20043;-63
2022/12/15 08:45:13;;;;;;;4.22;3.83;;;;;;;16.28;49.47;95864.38;5133697;28;20104;-61
2022/12/15 08:47:40;;;;;;;4.40;4.00;;;;;;;15.96;51.08;95871.91;5133666;28;20039;-64
2022/12/15 08:50:08;;;;;;;4.50;4.10;;;;;;;15.91;51.29;95864.31;5133698;28;20048;-66
2022/12/15 08:52:40;;;;;;;4.65;4.25;;;;;;;15.60;52.92;95869.09;5133720;28;20450;-65
2022/12/15 08:55:10;;;;;;;4.75;4.22;;;;;;;15.47;52.90;95866.47;5133648;28;20470;-64
2022/12/15 08:57:38;;;;;;;4.35;3.95;;;;;;;15.58;52.41;95871.84;5133644;28;20047;-64
2022/12/15 09:00:06;;;;;;;4.60;4.15;;;;;;;15.59;52.83;95873.50;5133442;28;20076;-65
2022/12/15 09:02:34;;;;;;;5.28;3.75;;;;;;;15.09;54.64;95881.28;5133515;28;20082;-66
2022/12/15 09:05:05;;;;;;;4.93;4.18;;;;;;;14.34;55.43;95878.16;5133514;28;20058;-63
2022/12/15 09:07:33;;;;;;;4.63;3.92;;;;;;;14.01;57.13;95867.03;5133470;28;20047;-63
2022/12/15 09:10:00;;;;;;;4.15;3.75;;;;;;;13.71;59.17;95876.75;5133382;28;20047;-61
2022/12/15 09:12:27;;;;;;;4.93;4.35;;;;;;;13.33;60.60;95878.09;5133408;28;20130;-65
2022/12/15 09:14:54;;;;;;;4.75;3.88;;;;;;;13.26;60.07;95882.00;5133537;28;20043;-62
2022/12/15 09:17:22;;;;;;;4.38;3.97;;;;;;;12.95;60.86;95879.44;5133310;28;20534;-65
2022/12/15 09:19:51;;;;;;;5.25;4.13;;;;;;;12.62;64.21;95881.25;5133738;27;20108;-65
2022/12/15 09:22:19;;;;;;;5.20;4.70;;;;;;;12.42;64.50;95889.41;5137035;27;20050;-65
2022/12/15 09:24:46;;;;;;;5.22;4.57;;;;;;;12.20;65.37;95887.97;5136918;27;20047;-65
2022/12/15 09:27:14;;;;;;;3.80;3.40;;;;;;;12.10;64.26;95880.63;5136964;27;20047;-63
2022/12/15 09:29:41;;;;;;;4.53;3.90;;;;;;;12.21;64.97;95887.03;5136732;27;20044;-66
2022/12/15 09:32:09;;;;;;;5.47;4.68;;;;;;;12.15;65.28;95890.84;5136746;27;20096;-65
2022/12/15 09:34:36;;;;;;;3.17;2.88;;;;;;;11.97;64.72;95876.94;5136693;27;20074;-66
2022/12/15 09:37:04;;;;;;;3.97;3.58;;;;;;;12.04;65.18;95880.09;5136830;27;20250;-64
2022/12/15 09:39:32;;;;;;;5.05;4.10;;;;;;;11.97;64.06;95874.31;5136696;27;20096;-65
2022/12/15 09:42:01;;;;;;;5.05;4.10;;;;;;;12.11;63.66;95881.47;5136372;27;20047;-64
2022/12/15 09:44:30;;;;;;;5.53;3.67;;;;;;;12.26;64.06;95882.41;5136500;27;20103;-62
2022/12/15 09:47:05;;;;;;;5.22;3.50;;;;;;;12.21;64.23;95882.66;5136545;27;20058;-65
2022/12/15 09:49:46;;;;;;;3.65;3.30;;;;;;;12.04;65.93;95880.09;5136473;27;20058;-66
2022/12/15 09:52:18;;;;;;;3.63;3.10;;;;;;;12.04;65.78;95877.47;5136524;27;20100;-64
2022/12/15 09:54:46;;;;;;;4.43;3.67;;;;;;;12.05;67.17;95887.88;5136299;27;20134;-62
2022/12/15 09:57:21;;;;;;;4.00;3.45;;;;;;;12.06;66.91;95884.31;5136314;27;20111;-64
2022/12/15 10:00:00;;;;;;;4.85;4.35;;;;;;;12.19;67.96;95887.13;5136146;27;20043;-64
2022/12/15 10:03:10;;;;;;;4.47;3.97;;;;;;;12.23;66.54;95890.44;5136105;27;20051;-63
2022/12/15 10:05:48;;;;;;;5.43;4.00;;;;;;;12.13;66.51;95876.97;5136143;27;20051;-66
2022/12/15 10:08:17;;;;;;;4.57;4.18;;;;;;;12.19;66.91;95887.13;5136067;27;20089;-65
2022/12/15 10:10:54;;;;;;;4.57;4.13;;;;;;;12.22;65.17;95889.59;5136031;27;20051;-61
2022/12/15 10:13:28;;;;;;;4.55;4.15;;;;;;;12.18;66.77;95885.44;5135996;27;20075;-64
2022/12/15 10:16:00;;;;;;;4.43;3.80;;;;;;;12.24;66.22;95890.34;5136046;27;20043;-64
2022/12/15 10:18:35;;;;;;;4.97;4.28;;;;;;;12.38;67.05;95886.94;5135908;27;20039;-65
2022/12/15 10:21:03;;;;;;;4.97;4.25;;;;;;;12.40;65.28;95888.66;5135800;27;20047;-63
2022/12/15 10:23:34;;;;;;;6.43;4.10;;;;;;;12.53;65.92;95889.66;5135898;27;20050;-65
2022/12/15 10:26:18;;;;;;;3.97;3.42;;;;;;;12.59;66.88;95881.47;5135834;27;20119;-65
2022/12/15 10:29:05;;;;;;;4.25;3.47;;;;;;;12.57;67.48;95874.59;5135739;27;20062;-63
2022/12/15 10:31:41;;;;;;;3.95;3.55;;;;;;;12.69;66.97;95886.16;5135109;27;20054;-65
2022/12/15 10:34:11;;;;;;;3.63;3.17;;;;;;;12.67;65.76;95894.13;5135600;27;20089;-67
2022/12/15 10:36:38;;;;;;;3.95;3.55;;;;;;;12.82;66.37;95894.19;5135601;27;20044;-64
2022/12/15 10:39:07;;;;;;;4.15;3.28;;;;;;;12.97;65.23;95900.31;5135505;27;20043;-65
2022/12/15 10:41:34;;;;;;;7.90;3.53;;;;;;;12.90;66.68;95899.84;5135112;27;20536;-66
2022/12/15 10:44:02;;;;;;;3.15;2.88;;;;;;;12.94;65.57;95897.91;5135464;27;20043;-67
2022/12/15 10:46:31;;;;;;;3.42;3.13;;;;;;;12.88;64.23;95893.81;5135478;27;20047;-67
2022/12/15 10:49:00;;;;;;;3.78;2.97;;;;;;;12.88;64.59;95892.03;5135418;27;20049;-67
2022/12/15 10:51:31;;;;;;;4.43;3.05;;;;;;;12.93;63.64;95888.31;5135388;27;20125;-64
2022/12/15 10:54:05;;;;;;;;;;;;;;;13.00;64.86;95898.38;5135709;27;20400;-66
2022/12/15 10:56:34;;;;;;;3.45;3.15;;;;;;;13.02;65.52;95890.41;5135179;27;20018;-65
2022/12/15 10:59:20;;;;;;;3.47;3.17;;;;;;;13.11;65.74;95897.75;5135195;27;20130;-66
2022/12/15 11:01:47;;;;;;;3.55;3.25;;;;;;;13.08;64.51;95884.78;5135104;27;20190;-66
2022/12/15 11:04:26;;;;;;;3.80;3.38;;;;;;;13.20;65.39;95893.75;5135055;27;20051;-66
2022/12/15 11:06:58;;;;;;;4.22;3.50;;;;;;;13.23;64.49;95890.94;5134953;27;20116;-66
2022/12/15 11:09:33;;;;;;;3.90;3.45;;;;;;;13.31;64.60;95887.00;5134969;27;20042;-67
2022/12/15 11:14:50;;;;;;;6.88;5.10;;;;;;;13.27;65.93;95895.06;5134965;27;20172;-64
2022/12/15 11:17:19;;;;;;;6.65;5.57;;;;;;;13.27;65.18;95894.19;5134790;27;20488;-66
2022/12/15 11:19:52;;;;;;;6.47;5.28;;;;;;;13.33;64.79;95878.09;5134717;27;20040;-67
2022/12/15 11:22:31;;;;;;;5.75;4.90;;;;;;;13.32;64.15;95873.78;5134716;27;20050;-63
2022/12/15 11:25:05;;;;;;;5.88;4.80;;;;;;;13.35;64.33;95886.72;5134599;27;20047;-63
2022/12/15 11:27:38;;;;;;;7.47;5.88;;;;;;;13.32;64.34;95886.06;5134605;27;20051;-63
2022/12/15 11:30:13;;;;;;;5.95;5.28;;;;;;;13.26;64.56;95901.25;5134601;27;20499;-66
2022/12/15 11:32:45;;;;;;;6.78;5.45;;;;;;;13.24;64.79;95905.75;5134550;27;20139;-65
2022/12/15 11:35:14;;;;;;;7.35;6.13;;;;;;;13.30;64.80;95916.84;5134447;27;20043;-66
2022/12/15 11:37:43;;;;;;;6.90;5.97;;;;;;;13.25;64.97;95923.19;5134328;27;20043;-65
2022/12/15 11:40:34;;;;;;;7.65;6.32;;;;;;;13.22;64.62;95928.59;5134289;27;20078;-63
2022/12/15 11:43:18;;;;;;;7.95;6.50;;;;;;;13.20;65.48;95934.91;5133362;27;20051;-64
2022/12/15 11:45:56;;;;;;;9.82;6.63;;;;;;;13.19;65.50;95928.81;5134263;27;20176;-67
2022/12/15 11:48:34;;;;;;;8.45;6.55;;;;;;;13.18;65.95;95929.72;5134237;27;20039;-63
2022/12/15 11:51:06;;;;;;;9.63;7.88;;;;;;;13.19;66.12;95941.09;5134206;27;20043;-65
2022/12/15 11:53:56;;;;;;;9.07;7.15;;;;;;;13.04;65.53;95948.06;5134150;27;20431;-66
2022/12/15 11:56:31;;;;;;;11.65;7.95;;;;;;;12.86;66.14;95945.56;5134131;27;20047;-62
2022/12/15 11:59:26;;;;;;;9.32;7.63;;;;;;;12.76;66.37;95938.22;5134264;27;20050;-64
2022/12/15 12:02:12;;;;;;;11.30;7.90;;;;;;;12.67;66.65;95945.75;5134006;27;20051;-65
2022/12/15 12:04:50;;;;;;;11.02;7.93;;;;;;;12.66;66.94;95944.06;5134099;27;20133;-64
2022/12/15 12:07:32;;;;;;;9.65;8.10;;;;;;;12.66;66.93;95951.91;5134045;28;20079;-67
2022/12/15 12:10:12;;;;;;;10.23;7.35;;;;;;;12.55;66.80;95956.00;5133967;28;20047;-64
2022/12/15 12:12:46;;;;;;;9.23;8.13;;;;;;;12.54;67.35;95963.94;5134000;28;20078;-63
2022/12/15 12:15:29;;;;;;;11.55;7.78;;;;;;;12.46;67.41;95967.84;5134030;28;20065;-65
2022/12/15 12:18:03;;;;;;;10.70;8.10;;;;;;;12.40;67.38;95973.41;5133954;28;20043;-64
2022/12/15 12:20:42;;;;;;;10.60;7.82;;;;;;;12.30;67.37;95980.94;5133944;28;20484;-62
2022/12/15 12:23:17;;;;;;;12.63;8.05;;;;;;;12.18;67.77;95978.97;5133925;28;20047;-62
2022/12/15 12:25:51;;;;;;;13.57;8.77;;;;;;;12.05;67.84;95982.22;5133903;28;20074;-67
2022/12/15 12:28:24;;;;;;;9.75;8.10;;;;;;;11.96;68.47;95985.34;5133888;28;20061;-64
2022/12/15 12:30:58;;;;;;;14.43;9.02;;;;;;;11.95;68.62;95988.88;5133842;28;20051;-66
2022/12/15 12:33:33;;;;;;;10.43;7.63;;;;;;;11.95;68.62;95986.28;5133872;28;20043;-66
2022/12/15 12:36:04;;;;;;;11.82;8.32;;;;;;;11.93;68.59;95983.72;5133777;28;20492;-67
2022/12/15 12:38:38;;;;;;;9.77;8.18;;;;;;;11.96;68.44;95988.81;5133731;28;20078;-63
2022/12/15 12:41:10;;;;;;;10.05;8.38;;;;;;;11.95;68.41;95989.72;5133592;28;20132;-65
2022/12/15 12:43:41;;;;;;;9.07;8.00;;;;;;;11.98;68.31;95993.97;5133509;28;20051;-66
2022/12/15 12:46:18;;;;;;;10.90;8.77;;;;;;;11.96;68.24;95995.81;5133863;28;20100;-63
2022/12/15 12:48:51;;;;;;;9.35;7.80;;;;;;;11.94;68.31;95998.53;5133594;28;20078;-63
2022/12/15 12:51:26;;;;;;;10.45;8.45;;;;;;;11.93;68.29;96009.06;5133600;28;20057;-65
2022/12/15 12:53:54;;;;;;;11.75;8.35;;;;;;;11.92;68.32;96012.63;5134306;27;20039;-65
2022/12/15 12:56:33;;;;;;;12.43;8.27;;;;;;;11.92;68.50;96016.09;5137504;27;20134;-66
2022/12/15 12:59:06;;;;;;;10.32;7.95;;;;;;;11.91;68.55;96017.03;5137595;27;20047;-63
2022/12/15 13:01:37;;;;;;;11.55;8.70;;;;;;;11.93;68.58;96017.81;5137323;27;20081;-66
2022/12/15 13:04:11;;;;;;;10.32;8.95;;;;;;;11.82;68.65;96025.34;5137426;27;20527;-66
2022/12/15 13:07:03;;;;;;;12.00;8.85;;;;;;;11.91;68.86;96021.41;5137364;27;20503;-63
2022/12/15 13:09:39;;;;;;;9.32;8.10;;;;;;;11.91;68.76;96026.63;5137247;27;20054;-64
2022/12/15 13:12:34;;;;;;;10.73;8.43;;;;;;;11.93;68.36;96028.28;5137156;27;20047;-65
2022/12/15 13:15:06;;;;;;;8.45;7.30;;;;;;;11.86;68.63;96032.16;5137164;27;20229;-64
2022/12/15 13:17:41;;;;;;;11.77;9.07;;;;;;;11.86;68.54;96038.22;5137119;27;20138;-66
2022/12/15 13:20:25;;;;;;;11.23;8.73;;;;;;;11.87;68.60;96046.94;5137079;27;20065;-63
2022/12/15 13:22:53;;;;;;;8.63;7.72;;;;;;;11.90;68.75;96053.78;5137083;27;20047;-66
2022/12/15 13:26:02;;;;;;;9.13;7.28;;;;;;;11.77;68.75;96057.03;5136941;27;20039;-66
2022/12/15 13:28:43;;;;;;;7.47;6.68;;;;;;;11.82;68.60;96067.28;5136930;27;20408;-64
2022/12/15 13:31:40;;;;;;;9.75;7.75;;;;;;;11.80;68.88;96071.75;5136741;27;20078;-64
2022/12/15 13:34:37;;;;;;;10.23;8.85;;;;;;;11.81;69.00;96070.81;5136843;27;20043;-66
2022/12/15 13:37:34;;;;;;;10.02;8.20;;;;;;;11.82;69.25;96078.63;5135344;27;20043;-63
2022/12/15 13:40:32;;;;;;;9.10;7.13;;;;;;;11.76;69.16;96084.16;5136670;27;20066;-62
2022/12/15 13:43:00;;;;;;;10.15;8.38;;;;;;;11.78;69.05;96089.31;5136548;27;20094;-66
2022/12/15 13:45:51;;;;;;;9.27;7.30;;;;;;;11.74;69.21;96101.75;5136617;27;20044;-66
2022/12/15 13:48:33;;;;;;;8.70;7.68;;;;;;;11.71;69.16;96101.91;5133583;27;20043;-63
2022/12/15 13:51:14;;;;;;;9.52;6.63;;;;;;;11.71;69.18;96107.13;5136444;27;20043;-65
2022/12/15 13:53:47;;;;;;;7.95;6.82;;;;;;;11.67;69.01;96101.19;5136361;27;20069;-67
2022/12/15 13:56:39;;;;;;;9.63;7.88;;;;;;;11.67;69.25;96103.81;5136476;27;20493;-64
2022/12/15 13:59:20;;;;;;;9.48;7.93;;;;;;;11.67;69.22;96101.19;5133706;27;20135;-64
2022/12/15 14:01:51;;;;;;;;;;;;;;;11.69;69.38;96103.72;5136790;27;20046;-61
2022/12/15 14:04:19;;;;;;;15.32;11.20;;;;;;;11.64;69.43;96109.19;5136397;27;19919;-64
2022/12/15 14:06:48;;;;;;;15.27;13.63;;;;;;;11.64;69.26;96101.34;5135434;27;20541;-65
2022/12/15 14:09:20;;;;;;;9.25;8.23;;;;;;;11.62;69.33;96096.16;5136211;27;20446;-65
2022/12/15 14:11:51;;;;;;;9.50;6.80;;;;;;;11.62;69.13;96098.78;5136317;27;20051;-65
2022/12/15 14:14:22;;;;;;;9.52;7.78;;;;;;;11.60;69.20;96092.78;5136054;27;20079;-64